sensor_id;sensor_type;location;lat;lon;timestamp;pressure;altitude;pressure_sealevel;temperature;humidity
74045;BME280;62389;51.412;5.436;2023-04-24T00:01:40;99920.03;;;8.46;100.00
74045;BME280;62389;51.412;5.436;2023-04-24T00:04:06;99916.44;;;8.48;100.00
74045;BME280;62389;51.412;5.436;2023-04-24T00:06:32;99917.28;;;8.49;100.00
74045;BME280;62389;51.412;5.436;2023-04-24T00:09:02;99917.28;;;8.49;100.00
74045;BME280;62389;51.412;5.436;2023-04-24T00:11:27;99924.31;;;8.47;100.00
74045;BME280;62389;51.412;5.436;2023-04-24T00:13:53;99925.25;;;8.46;100.00
74045;BME280;62389;51.412;5.436;2023-04-24T00:16:18;99927.00;;;8.45;99.70
74045;BME280;62389;51.412;5.436;2023-04-24T00:18:44;99922.63;;;8.46;99.12
74045;BME280;62389;51.412;5.436;2023-04-24T00:21:10;99920.03;;;8.46;99.20
74045;BME280;62389;51.412;5.436;2023-04-24T00:23:35;99922.63;;;8.46;99.35
74045;BME280;62389;51.412;5.436;2023-04-24T00:26:01;99931.38;;;8.45;99.48
74045;BME280;62389;51.412;5.436;2023-04-24T00:28:27;99932.09;;;8.48;99.81
74045;BME280;62389;51.412;5.436;2023-04-24T00:30:53;99933.69;;;8.51;99.22
74045;BME280;62389;51.412;5.436;2023-04-24T00:33:19;99933.69;;;8.51;99.02
74045;BME280;62389;51.412;5.436;2023-04-24T00:35:44;99930.31;;;8.49;98.79
74045;BME280;62389;51.412;5.436;2023-04-24T00:38:10;99939.72;;;8.51;100.00
74045;BME280;62389;51.412;5.436;2023-04-24T00:40:35;99934.59;;;8.50;99.13
74045;BME280;62389;51.412;5.436;2023-04-24T00:43:00;99934.00;;;8.45;99.37
74045;BME280;62389;51.412;5.436;2023-04-24T00:45:26;99944.63;;;8.40;98.68
74045;BME280;62389;51.412;5.436;2023-04-24T00:47:52;99940.50;;;8.36;98.88
74045;BME280;62389;51.412;5.436;2023-04-24T00:50:18;99935.31;;;8.35;98.99
74045;BME280;62389;51.412;5.436;2023-04-24T00:52:44;99925.88;;;8.32;99.40
74045;BME280;62389;51.412;5.436;2023-04-24T00:55:10;99946.06;;;8.28;99.23
74045;BME280;62389;51.412;5.436;2023-04-24T00:57:36;99935.69;;;8.27;99.68
74045;BME280;62389;51.412;5.436;2023-04-24T01:00:03;99940.91;;;8.27;99.35
74045;BME280;62389;51.412;5.436;2023-04-24T01:02:28;99936.53;;;8.27;99.50
74045;BME280;62389;51.412;5.436;2023-04-24T01:04:54;99937.31;;;8.29;99.09
74045;BME280;62389;51.412;5.436;2023-04-24T01:07:20;99941.59;;;8.30;99.35
74045;BME280;62389;51.412;5.436;2023-04-24T01:09:47;99937.31;;;8.29;99.49
74045;BME280;62389;51.412;5.436;2023-04-24T01:12:15;99931.31;;;8.27;99.45
74045;BME280;62389;51.412;5.436;2023-04-24T01:14:40;99935.91;;;8.22;100.00
74045;BME280;62389;51.412;5.436;2023-04-24T01:17:05;99931.63;;;8.21;99.98
74045;BME280;62389;51.412;5.436;2023-04-24T01:19:31;99933.31;;;8.22;100.00
74045;BME280;62389;51.412;5.436;2023-04-24T01:21:58;99932.16;;;8.28;99.86
74045;BME280;62389;51.412;5.436;2023-04-24T01:24:24;99940.75;;;8.30;99.26
74045;BME280;62389;51.412;5.436;2023-04-24T01:26:49;99933.03;;;8.28;99.72
74045;BME280;62389;51.412;5.436;2023-04-24T01:29:15;99935.78;;;8.25;99.72
74045;BME280;62389;51.412;5.436;2023-04-24T01:31:41;99934.09;;;8.24;98.43
74045;BME280;62389;51.412;5.436;2023-04-24T01:34:06;99935.00;;;8.23;98.66
74045;BME280;62389;51.412;5.436;2023-04-24T01:36:34;99934.09;;;8.24;99.39
74045;BME280;62389;51.412;5.436;2023-04-24T01:39:00;99930.66;;;8.24;98.17
74045;BME280;62389;51.412;5.436;2023-04-24T01:41:26;99939.44;;;8.21;98.84
74045;BME280;62389;51.412;5.436;2023-04-24T01:43:51;99935.91;;;8.22;99.22
74045;BME280;62389;51.412;5.436;2023-04-24T01:46:17;99930.69;;;8.22;98.47
74045;BME280;62389;51.412;5.436;2023-04-24T01:48:44;99932.47;;;8.22;98.90
74045;BME280;62389;51.412;5.436;2023-04-24T01:51:10;99935.06;;;8.22;98.12
74045;BME280;62389;51.412;5.436;2023-04-24T01:53:35;99933.25;;;8.24;98.50
74045;BME280;62389;51.412;5.436;2023-04-24T01:56:01;99937.63;;;8.23;99.46
74045;BME280;62389;51.412;5.436;2023-04-24T01:58:26;99932.53;;;8.20;98.85
74045;BME280;62389;51.412;5.436;2023-04-24T02:00:52;99942.97;;;8.20;98.46
74045;BME280;62389;51.412;5.436;2023-04-24T02:03:17;99939.53;;;8.20;99.07
74045;BME280;62389;51.412;5.436;2023-04-24T02:05:45;99932.53;;;8.20;98.52
74045;BME280;62389;51.412;5.436;2023-04-24T02:08:11;99941.13;;;8.22;98.67
74045;BME280;62389;51.412;5.436;2023-04-24T02:10:36;99943.81;;;8.21;98.31
74045;BME280;62389;51.412;5.436;2023-04-24T02:13:01;99942.97;;;8.20;97.90
74045;BME280;62389;51.412;5.436;2023-04-24T02:15:27;99947.41;;;8.18;97.35
74045;BME280;62389;51.412;5.436;2023-04-24T02:17:53;99958.72;;;8.17;97.93
74045;BME280;62389;51.412;5.436;2023-04-24T02:20:18;99942.25;;;8.17;97.81
74045;BME280;62389;51.412;5.436;2023-04-24T02:22:43;99951.72;;;8.19;97.44
74045;BME280;62389;51.412;5.436;2023-04-24T02:25:09;99946.50;;;8.19;98.15
74045;BME280;62389;51.412;5.436;2023-04-24T02:27:34;99945.50;;;8.22;98.51
74045;BME280;62389;51.412;5.436;2023-04-24T02:30:00;99946.28;;;8.24;97.97
74045;BME280;62389;51.412;5.436;2023-04-24T02:32:25;99941.91;;;8.24;97.77
74045;BME280;62389;51.412;5.436;2023-04-24T02:34:51;99942.84;;;8.23;97.48
74045;BME280;62389;51.412;5.436;2023-04-24T02:37:16;99947.13;;;8.24;97.20
74045;BME280;62389;51.412;5.436;2023-04-24T02:39:42;99938.38;;;8.25;96.97
74045;BME280;62389;51.412;5.436;2023-04-24T02:42:07;99938.28;;;8.27;97.27
74045;BME280;62389;51.412;5.436;2023-04-24T02:44:33;99942.66;;;8.26;97.17
74045;BME280;62389;51.412;5.436;2023-04-24T02:46:58;99932.31;;;8.25;96.75
74045;BME280;62389;51.412;5.436;2023-04-24T02:49:24;99938.50;;;8.22;96.09
74045;BME280;62389;51.412;5.436;2023-04-24T02:51:49;99929.94;;;8.20;96.99
74045;BME280;62389;51.412;5.436;2023-04-24T02:54:14;99930.88;;;8.19;96.87
74045;BME280;62389;51.412;5.436;2023-04-24T02:56:40;99922.25;;;8.17;96.09
74045;BME280;62389;51.412;5.436;2023-04-24T02:59:05;99926.63;;;8.17;96.95
74045;BME280;62389;51.412;5.436;2023-04-24T03:01:31;99931.84;;;8.17;96.45
74045;BME280;62389;51.412;5.436;2023-04-24T03:03:56;99931.09;;;8.15;95.74
74045;BME280;62389;51.412;5.436;2023-04-24T03:06:22;99926.72;;;8.15;95.81
74045;BME280;62389;51.412;5.436;2023-04-24T03:08:47;99933.59;;;8.16;96.25
74045;BME280;62389;51.412;5.436;2023-04-24T03:11:13;99938.72;;;8.18;97.29
74045;BME280;62389;51.412;5.436;2023-04-24T03:13:38;99936.22;;;8.16;96.25
74045;BME280;62389;51.412;5.436;2023-04-24T03:16:04;99922.44;;;8.14;95.95
74045;BME280;62389;51.412;5.436;2023-04-24T03:18:29;99934.66;;;8.12;95.98
74045;BME280;62389;51.412;5.436;2023-04-24T03:20:55;99933.81;;;8.12;96.32
74045;BME280;62389;51.412;5.436;2023-04-24T03:23:20;99934.00;;;8.09;96.04
74045;BME280;62389;51.412;5.436;2023-04-24T03:25:46;99922.69;;;8.08;95.66
74045;BME280;62389;51.412;5.436;2023-04-24T03:28:13;99930.38;;;8.11;95.23
74045;BME280;62389;51.412;5.436;2023-04-24T03:30:38;99930.28;;;8.13;95.71
74045;BME280;62389;51.412;5.436;2023-04-24T03:33:04;99934.66;;;8.12;95.89
74045;BME280;62389;51.412;5.436;2023-04-24T03:35:29;99939.88;;;8.12;96.21
74045;BME280;62389;51.412;5.436;2023-04-24T03:37:55;99935.59;;;8.11;95.54
74045;BME280;62389;51.412;5.436;2023-04-24T03:40:20;99932.97;;;8.11;96.05
74045;BME280;62389;51.412;5.436;2023-04-24T03:42:46;99941.63;;;8.12;95.49
74045;BME280;62389;51.412;5.436;2023-04-24T03:45:11;99934.63;;;8.14;95.52
74045;BME280;62389;51.412;5.436;2023-04-24T03:47:36;99932.06;;;8.12;95.41
74045;BME280;62389;51.412;5.436;2023-04-24T03:50:02;99930.38;;;8.11;95.28
74045;BME280;62389;51.412;5.436;2023-04-24T03:52:27;99931.31;;;8.10;95.21
74045;BME280;62389;51.412;5.436;2023-04-24T03:54:53;99932.28;;;8.08;95.82
74045;BME280;62389;51.412;5.436;2023-04-24T03:57:18;99941.84;;;8.07;95.04
74045;BME280;62389;51.412;5.436;2023-04-24T03:59:43;99939.19;;;8.09;95.42
74045;BME280;62389;51.412;5.436;2023-04-24T04:02:09;99939.19;;;8.09;95.18
74045;BME280;62389;51.412;5.436;2023-04-24T04:04:34;99934.00;;;8.09;95.14
74045;BME280;62389;51.412;5.436;2023-04-24T04:07:00;99930.69;;;8.05;95.67
74045;BME280;62389;51.412;5.436;2023-04-24T04:09:28;99938.63;;;8.02;96.00
74045;BME280;62389;51.412;5.436;2023-04-24T04:11:53;99933.50;;;8.00;95.66
74045;BME280;62389;51.412;5.436;2023-04-24T04:14:19;99949.34;;;7.96;95.58
74045;BME280;62389;51.412;5.436;2023-04-24T04:16:44;99940.59;;;7.97;97.05
74045;BME280;62389;51.412;5.436;2023-04-24T04:19:10;99941.66;;;7.93;97.00
74045;BME280;62389;51.412;5.436;2023-04-24T04:21:35;99945.25;;;7.90;96.65
74045;BME280;62389;51.412;5.436;2023-04-24T04:24:00;99946.22;;;7.88;98.10
74045;BME280;62389;51.412;5.436;2023-04-24T04:26:26;99937.03;;;7.81;98.09
74045;BME280;62389;51.412;5.436;2023-04-24T04:28:52;99941.75;;;7.72;98.00
74045;BME280;62389;51.412;5.436;2023-04-24T04:31:19;99944.78;;;7.63;98.38
74045;BME280;62389;51.412;5.436;2023-04-24T04:33:45;99955.44;;;7.57;99.58
74045;BME280;62389;51.412;5.436;2023-04-24T04:36:10;99948.66;;;7.55;99.58
74045;BME280;62389;51.412;5.436;2023-04-24T04:38:35;99942.59;;;7.54;100.00
74045;BME280;62389;51.412;5.436;2023-04-24T04:41:02;99941.69;;;7.55;100.00
74045;BME280;62389;51.412;5.436;2023-04-24T04:43:28;99948.66;;;7.55;100.00
74045;BME280;62389;51.412;5.436;2023-04-24T04:45:53;99953.84;;;7.55;100.00
74045;BME280;62389;51.412;5.436;2023-04-24T04:48:19;99958.06;;;7.57;100.00
74045;BME280;62389;51.412;5.436;2023-04-24T04:50:45;99944.16;;;7.58;100.00
74045;BME280;62389;51.412;5.436;2023-04-24T04:53:10;99947.66;;;7.57;100.00
74045;BME280;62389;51.412;5.436;2023-04-24T04:55:36;99955.44;;;7.57;100.00
74045;BME280;62389;51.412;5.436;2023-04-24T04:58:01;99954.56;;;7.58;100.00
74045;BME280;62389;51.412;5.436;2023-04-24T05:00:27;99958.00;;;7.59;100.00
74045;BME280;62389;51.412;5.436;2023-04-24T05:02:54;99959.78;;;7.58;100.00
74045;BME280;62389;51.412;5.436;2023-04-24T05:05:19;99960.66;;;7.57;100.00
74045;BME280;62389;51.412;5.436;2023-04-24T05:07:45;99955.41;;;7.59;100.00
74045;BME280;62389;51.412;5.436;2023-04-24T05:10:11;99957.16;;;7.58;100.00
74045;BME280;62389;51.412;5.436;2023-04-24T05:12:36;99963.13;;;7.60;100.00
74045;BME280;62389;51.412;5.436;2023-04-24T05:15:02;99966.66;;;7.59;100.00
74045;BME280;62389;51.412;5.436;2023-04-24T05:17:28;99962.38;;;7.58;100.00
74045;BME280;62389;51.412;5.436;2023-04-24T05:19:54;99963.25;;;7.57;100.00
74045;BME280;62389;51.412;5.436;2023-04-24T05:22:19;99971.22;;;7.54;100.00
74045;BME280;62389;51.412;5.436;2023-04-24T05:24:46;99980.91;;;7.50;100.00
74045;BME280;62389;51.412;5.436;2023-04-24T05:27:11;99990.81;;;7.42;100.00
74045;BME280;62389;51.412;5.436;2023-04-24T05:29:36;99991.81;;;7.40;100.00
74045;BME280;62389;51.412;5.436;2023-04-24T05:32:02;99991.94;;;7.37;100.00
74045;BME280;62389;51.412;5.436;2023-04-24T05:34:27;99997.13;;;7.37;100.00
74045;BME280;62389;51.412;5.436;2023-04-24T05:36:52;100003.31;;;7.34;100.00
74045;BME280;62389;51.412;5.436;2023-04-24T05:39:18;100003.44;;;7.31;100.00
74045;BME280;62389;51.412;5.436;2023-04-24T05:41:45;100012.38;;;7.25;100.00
74045;BME280;62389;51.412;5.436;2023-04-24T05:44:10;100011.78;;;7.19;100.00
74045;BME280;62389;51.412;5.436;2023-04-24T05:46:35;100002.34;;;7.16;100.00
74045;BME280;62389;51.412;5.436;2023-04-24T05:49:01;100018.03;;;7.15;100.00
74045;BME280;62389;51.412;5.436;2023-04-24T05:51:27;100011.19;;;7.12;100.00
74045;BME280;62389;51.412;5.436;2023-04-24T05:53:53;100013.97;;;7.08;100.00
74045;BME280;62389;51.412;5.436;2023-04-24T05:56:18;100009.00;;;7.03;100.00
74045;BME280;62389;51.412;5.436;2023-04-24T05:58:45;100024.59;;;7.03;100.00
74045;BME280;62389;51.412;5.436;2023-04-24T06:01:11;100014.22;;;7.03;100.00
74045;BME280;62389;51.412;5.436;2023-04-24T06:03:38;100029.81;;;7.03;100.00
74045;BME280;62389;51.412;5.436;2023-04-24T06:06:03;100023.88;;;6.99;100.00
74045;BME280;62389;51.412;5.436;2023-04-24T06:08:29;100036.09;;;6.97;100.00
74045;BME280;62389;51.412;5.436;2023-04-24T06:10:54;100046.56;;;6.96;100.00
74045;BME280;62389;51.412;5.436;2023-04-24T06:13:20;100046.69;;;6.93;100.00
74045;BME280;62389;51.412;5.436;2023-04-24T06:15:45;100059.81;;;6.90;100.00
74045;BME280;62389;51.412;5.436;2023-04-24T06:18:10;100063.19;;;6.92;100.00
74045;BME280;62389;51.412;5.436;2023-04-24T06:20:36;100065.78;;;6.92;100.00
74045;BME280;62389;51.412;5.436;2023-04-24T06:23:01;100074.41;;;6.92;100.00
74045;BME280;62389;51.412;5.436;2023-04-24T06:25:27;100083.09;;;6.93;100.00
74045;BME280;62389;51.412;5.436;2023-04-24T06:27:53;100083.03;;;6.94;100.00
74045;BME280;62389;51.412;5.436;2023-04-24T06:30:19;100095.09;;;6.95;100.00
74045;BME280;62389;51.412;5.436;2023-04-24T06:32:44;100093.28;;;6.97;100.00
74045;BME280;62389;51.412;5.436;2023-04-24T06:35:10;100095.94;;;6.96;100.00
74045;BME280;62389;51.412;5.436;2023-04-24T06:37:38;100110.59;;;6.98;100.00
74045;BME280;62389;51.412;5.436;2023-04-24T06:40:04;100107.94;;;7.00;100.00
74045;BME280;62389;51.412;5.436;2023-04-24T06:42:29;100115.63;;;7.03;100.00
74045;BME280;62389;51.412;5.436;2023-04-24T06:44:55;100131.13;;;7.05;100.00
74045;BME280;62389;51.412;5.436;2023-04-24T06:47:20;100125.09;;;7.04;100.00
74045;BME280;62389;51.412;5.436;2023-04-24T06:49:46;100135.53;;;7.03;100.00
74045;BME280;62389;51.412;5.436;2023-04-24T06:52:11;100143.31;;;7.04;100.00
74045;BME280;62389;51.412;5.436;2023-04-24T06:54:36;100152.00;;;7.03;100.00
74045;BME280;62389;51.412;5.436;2023-04-24T06:57:02;100165.03;;;7.03;100.00
74045;BME280;62389;51.412;5.436;2023-04-24T06:59:28;100164.09;;;7.04;100.00
74045;BME280;62389;51.412;5.436;2023-04-24T07:01:54;100174.38;;;7.07;100.00
74045;BME280;62389;51.412;5.436;2023-04-24T07:04:20;100183.88;;;7.08;100.00
74045;BME280;62389;51.412;5.436;2023-04-24T07:06:45;100176.78;;;7.12;100.00
74045;BME280;62389;51.412;5.436;2023-04-24T07:09:14;100194.06;;;7.13;100.00
74045;BME280;62389;51.412;5.436;2023-04-24T07:11:41;100207.03;;;7.14;100.00
74045;BME280;62389;51.412;5.436;2023-04-24T07:14:07;100207.88;;;7.15;100.00
74045;BME280;62389;51.412;5.436;2023-04-24T07:16:32;100217.38;;;7.16;100.00
74045;BME280;62389;51.412;5.436;2023-04-24T07:18:57;100226.00;;;7.16;100.00
74045;BME280;62389;51.412;5.436;2023-04-24T07:21:23;100232.13;;;7.15;100.00
74045;BME280;62389;51.412;5.436;2023-04-24T07:23:48;100232.19;;;7.14;100.00
74045;BME280;62389;51.412;5.436;2023-04-24T07:26:14;100236.41;;;7.16;100.00
74045;BME280;62389;51.412;5.436;2023-04-24T07:28:40;100251.91;;;7.19;100.00
74045;BME280;62389;51.412;5.436;2023-04-24T07:31:05;100251.84;;;7.21;100.00
74045;BME280;62389;51.412;5.436;2023-04-24T07:33:31;100264.00;;;7.20;100.00
74045;BME280;62389;51.412;5.436;2023-04-24T07:35:56;100267.69;;;7.15;100.00
74045;BME280;62389;51.412;5.436;2023-04-24T07:38:22;100281.66;;;7.12;100.00
74045;BME280;62389;51.412;5.436;2023-04-24T07:40:48;100274.75;;;7.11;100.00
74045;BME280;62389;51.412;5.436;2023-04-24T07:43:13;100300.69;;;7.13;100.00
74045;BME280;62389;51.412;5.436;2023-04-24T07:45:39;100302.53;;;7.11;100.00
74045;BME280;62389;51.412;5.436;2023-04-24T07:48:05;100314.63;;;7.12;100.00
74045;BME280;62389;51.412;5.436;2023-04-24T07:50:31;100326.84;;;7.10;100.00
74045;BME280;62389;51.412;5.436;2023-04-24T07:52:56;100328.53;;;7.11;100.00
74045;BME280;62389;51.412;5.436;2023-04-24T07:55:22;100334.56;;;7.11;100.00
74045;BME280;62389;51.412;5.436;2023-04-24T07:57:47;100336.16;;;7.15;100.00
74045;BME280;62389;51.412;5.436;2023-04-24T08:00:13;100341.25;;;7.18;100.00
74045;BME280;62389;51.412;5.436;2023-04-24T08:02:39;100343.69;;;7.23;100.00
74045;BME280;62389;51.412;5.436;2023-04-24T08:05:06;100355.63;;;7.29;100.00
74045;BME280;62389;51.412;5.436;2023-04-24T08:07:32;100356.31;;;7.32;100.00
74045;BME280;62389;51.412;5.436;2023-04-24T08:09:57;100356.41;;;7.31;100.00
74045;BME280;62389;51.412;5.436;2023-04-24T08:12:24;100359.78;;;7.33;100.00
74045;BME280;62389;51.412;5.436;2023-04-24T08:14:49;100364.97;;;7.33;100.00
74045;BME280;62389;51.412;5.436;2023-04-24T08:17:16;100368.56;;;7.30;100.00
74045;BME280;62389;51.412;5.436;2023-04-24T08:19:42;100378.13;;;7.30;100.00
74045;BME280;62389;51.412;5.436;2023-04-24T08:22:12;100387.63;;;7.31;100.00
74045;BME280;62389;51.412;5.436;2023-04-24T08:24:38;100400.63;;;7.31;100.00
74045;BME280;62389;51.412;5.436;2023-04-24T08:27:03;100402.28;;;7.33;100.00
74045;BME280;62389;51.412;5.436;2023-04-24T08:29:28;100406.56;;;7.34;100.00
74045;BME280;62389;51.412;5.436;2023-04-24T08:31:54;100409.09;;;7.36;100.00
74045;BME280;62389;51.412;5.436;2023-04-24T08:34:20;100416.84;;;7.37;100.00
74045;BME280;62389;51.412;5.436;2023-04-24T08:36:46;100416.66;;;7.42;100.00
74045;BME280;62389;51.412;5.436;2023-04-24T08:39:11;100414.53;;;7.53;100.00
74045;BME280;62389;51.412;5.436;2023-04-24T08:41:37;100422.78;;;7.64;100.00
74045;BME280;62389;51.412;5.436;2023-04-24T08:44:03;100422.47;;;7.72;100.00
74045;BME280;62389;51.412;5.436;2023-04-24T08:46:30;100437.00;;;7.77;100.00
74045;BME280;62389;51.412;5.436;2023-04-24T08:48:56;100441.31;;;7.78;100.00
74045;BME280;62389;51.412;5.436;2023-04-24T08:51:22;100444.59;;;7.84;100.00
74045;BME280;62389;51.412;5.436;2023-04-24T08:53:48;100442.44;;;7.95;100.00
74045;BME280;62389;51.412;5.436;2023-04-24T08:56:14;100452.34;;;8.07;100.00
74045;BME280;62389;51.412;5.436;2023-04-24T08:58:40;100452.66;;;8.21;100.00
74045;BME280;62389;51.412;5.436;2023-04-24T09:01:06;100458.41;;;8.29;100.00
74045;BME280;62389;51.412;5.436;2023-04-24T09:03:33;100476.34;;;8.15;97.70
74045;BME280;62389;51.412;5.436;2023-04-24T09:05:58;100474.22;;;8.03;98.40
74045;BME280;62389;51.412;5.436;2023-04-24T09:08:25;100478.16;;;7.91;98.27
74045;BME280;62389;51.412;5.436;2023-04-24T09:10:51;100489.88;;;7.79;96.88
74045;BME280;62389;51.412;5.436;2023-04-24T09:13:18;100484.09;;;7.71;96.72
74045;BME280;62389;51.412;5.436;2023-04-24T09:15:44;100488.28;;;7.75;97.67
74045;BME280;62389;51.412;5.436;2023-04-24T09:18:10;100491.56;;;7.81;97.74
74045;BME280;62389;51.412;5.436;2023-04-24T09:21:02;100507.03;;;7.85;98.00
74045;BME280;62389;51.412;5.436;2023-04-24T09:23:28;100496.31;;;7.93;97.48
74045;BME280;62389;51.412;5.436;2023-04-24T09:25:55;100502.84;;;8.03;95.84
74045;BME280;62389;51.412;5.436;2023-04-24T09:28:46;100507.38;;;8.21;95.30
74045;BME280;62389;51.412;5.436;2023-04-24T09:31:19;100519.47;;;8.46;94.90
74045;BME280;62389;51.412;5.436;2023-04-24T09:34:05;100516.72;;;8.71;94.59
74045;BME280;62389;51.412;5.436;2023-04-24T09:36:37;100521.84;;;8.72;94.84
74045;BME280;62389;51.412;5.436;2023-04-24T09:39:13;100521.56;;;8.58;93.65
74045;BME280;62389;51.412;5.436;2023-04-24T09:41:46;100528.88;;;8.50;94.75
74045;BME280;62389;51.412;5.436;2023-04-24T09:44:22;100531.13;;;8.36;94.92
74045;BME280;62389;51.412;5.436;2023-04-24T09:46:56;100536.69;;;8.26;94.23
74045;BME280;62389;51.412;5.436;2023-04-24T09:49:29;100549.19;;;8.18;94.52
74045;BME280;62389;51.412;5.436;2023-04-24T09:52:10;100555.19;;;8.20;96.04
74045;BME280;62389;51.412;5.436;2023-04-24T09:54:37;100550.63;;;8.25;93.85
74045;BME280;62389;51.412;5.436;2023-04-24T09:57:02;100550.53;;;8.28;93.39
74045;BME280;62389;51.412;5.436;2023-04-24T09:59:29;100569.91;;;8.45;92.04
74045;BME280;62389;51.412;5.436;2023-04-24T10:01:54;100575.16;;;8.65;90.93
74045;BME280;62389;51.412;5.436;2023-04-24T10:06:46;100568.44;;;9.63;87.59
74045;BME280;62389;51.412;5.436;2023-04-24T10:09:14;100576.19;;;9.85;87.96
74045;BME280;62389;51.412;5.436;2023-04-24T10:11:44;100578.34;;;9.75;84.76
74045;BME280;62389;51.412;5.436;2023-04-24T10:14:15;100576.69;;;9.54;84.63
74045;BME280;62389;51.412;5.436;2023-04-24T10:16:40;100581.13;;;9.31;86.47
74045;BME280;62389;51.412;5.436;2023-04-24T10:19:07;100580.81;;;9.19;88.33
74045;BME280;62389;51.412;5.436;2023-04-24T10:21:32;100577.84;;;9.06;85.63
74045;BME280;62389;51.412;5.436;2023-04-24T10:23:59;100593.03;;;8.96;85.42
74045;BME280;62389;51.412;5.436;2023-04-24T10:26:26;100592.13;;;8.97;86.24
74045;BME280;62389;51.412;5.436;2023-04-24T10:28:53;100585.97;;;8.98;84.58
74045;BME280;62389;51.412;5.436;2023-04-24T10:31:20;100592.25;;;8.94;84.12
74045;BME280;62389;51.412;5.436;2023-04-24T10:33:46;100605.34;;;8.93;83.60
74045;BME280;62389;51.412;5.436;2023-04-24T10:36:12;100598.94;;;8.79;83.49
74045;BME280;62389;51.412;5.436;2023-04-24T10:38:40;100598.97;;;8.78;84.35
74045;BME280;62389;51.412;5.436;2023-04-24T10:41:12;100603.25;;;8.80;82.75
74045;BME280;62389;51.412;5.436;2023-04-24T10:44:12;100593.94;;;8.73;81.33
74045;BME280;62389;51.412;5.436;2023-04-24T10:46:39;100607.88;;;8.74;82.29
74045;BME280;62389;51.412;5.436;2023-04-24T10:49:07;100614.28;;;8.65;82.10
74045;BME280;62389;51.412;5.436;2023-04-24T10:51:53;100625.25;;;8.73;83.33
74045;BME280;62389;51.412;5.436;2023-04-24T10:54:48;100627.69;;;9.00;83.03
74045;BME280;62389;51.412;5.436;2023-04-24T10:59:48;100634.69;;;8.98;80.64
74045;BME280;62389;51.412;5.436;2023-04-24T11:02:14;100641.75;;;8.96;79.22
74045;BME280;62389;51.412;5.436;2023-04-24T11:04:40;100638.72;;;8.85;79.82
74045;BME280;62389;51.412;5.436;2023-04-24T11:07:06;100646.72;;;8.80;78.12
74045;BME280;62389;51.412;5.436;2023-04-24T11:09:32;100644.41;;;8.72;77.54
74045;BME280;62389;51.412;5.436;2023-04-24T11:12:09;100647.69;;;8.77;78.87
74045;BME280;62389;51.412;5.436;2023-04-24T11:20:08;100649.25;;;9.25;79.90
74045;BME280;62389;51.412;5.436;2023-04-24T11:22:38;100654.22;;;9.31;78.15
74045;BME280;62389;51.412;5.436;2023-04-24T11:25:07;100655.91;;;9.32;77.87
74045;BME280;62389;51.412;5.436;2023-04-24T11:27:41;100668.75;;;9.37;76.27
74045;BME280;62389;51.412;5.436;2023-04-24T11:30:07;100671.88;;;9.25;76.86
74045;BME280;62389;51.412;5.436;2023-04-24T11:35:04;100662.81;;;9.33;78.94
74045;BME280;62389;51.412;5.436;2023-04-24T11:37:35;100670.03;;;9.49;77.59
74045;BME280;62389;51.412;5.436;2023-04-24T11:40:01;100668.84;;;9.56;75.73
74045;BME280;62389;51.412;5.436;2023-04-24T11:42:28;100691.56;;;9.54;76.08
74045;BME280;62389;51.412;5.436;2023-04-24T11:44:54;100688.25;;;9.50;77.00
74045;BME280;62389;51.412;5.436;2023-04-24T11:47:30;100698.88;;;9.46;76.63
74045;BME280;62389;51.412;5.436;2023-04-24T11:49:58;100698.13;;;9.42;74.68
74045;BME280;62389;51.412;5.436;2023-04-24T11:52:23;100697.94;;;9.47;74.97
74045;BME280;62389;51.412;5.436;2023-04-24T11:54:49;100700.28;;;9.53;74.15
74045;BME280;62389;51.412;5.436;2023-04-24T11:57:15;100704.56;;;9.55;75.12
74045;BME280;62389;51.412;5.436;2023-04-24T11:59:41;100709.31;;;9.46;75.27
74045;BME280;62389;51.412;5.436;2023-04-24T12:02:06;100706.59;;;9.49;75.23
74045;BME280;62389;51.412;5.436;2023-04-24T12:04:41;100710.25;;;9.65;73.40
74045;BME280;62389;51.412;5.436;2023-04-24T12:07:06;100709.69;;;9.79;73.35
74045;BME280;62389;51.412;5.436;2023-04-24T12:09:56;100709.59;;;10.01;75.10
74045;BME280;62389;51.412;5.436;2023-04-24T12:12:24;100705.66;;;10.31;74.06
74045;BME280;62389;51.412;5.436;2023-04-24T12:14:59;100712.31;;;10.57;73.57
74045;BME280;62389;51.412;5.436;2023-04-24T12:19:50;100711.19;;;10.63;68.50
74045;BME280;62389;51.412;5.436;2023-04-24T12:22:16;100716.97;;;10.32;65.59
74045;BME280;62389;51.412;5.436;2023-04-24T12:25:03;100721.63;;;10.25;70.05
74045;BME280;62389;51.412;5.436;2023-04-24T12:27:33;100724.50;;;10.40;68.89
74045;BME280;62389;51.412;5.436;2023-04-24T12:30:00;100723.28;;;10.47;68.63
74045;BME280;62389;51.412;5.436;2023-04-24T12:32:26;100748.91;;;10.38;69.59
74045;BME280;62389;51.412;5.436;2023-04-24T12:34:53;100749.47;;;10.26;68.81
74045;BME280;62389;51.412;5.436;2023-04-24T12:37:19;100748.22;;;10.15;68.20
74045;BME280;62389;51.412;5.436;2023-04-24T12:40:05;100741.97;;;10.17;70.23
74045;BME280;62389;51.412;5.436;2023-04-24T12:42:34;100748.44;;;10.08;69.19
74045;BME280;62389;51.412;5.436;2023-04-24T12:45:03;100749.94;;;9.94;68.13
74045;BME280;62389;51.412;5.436;2023-04-24T12:47:29;100759.81;;;9.87;68.58
74045;BME280;62389;51.412;5.436;2023-04-24T12:49:55;100765.97;;;9.86;70.00
74045;BME280;62389;51.412;5.436;2023-04-24T12:52:27;100768.75;;;9.81;68.48
74045;BME280;62389;51.412;5.436;2023-04-24T12:54:54;100765.03;;;9.87;68.16
74045;BME280;62389;51.412;5.436;2023-04-24T12:57:21;100762.25;;;9.92;68.11
74045;BME280;62389;51.412;5.436;2023-04-24T12:59:46;100760.56;;;9.91;68.15
74045;BME280;62389;51.412;5.436;2023-04-24T13:02:12;100755.44;;;9.88;68.51
74045;BME280;62389;51.412;5.436;2023-04-24T13:04:37;100759.09;;;9.83;71.06
74045;BME280;62389;51.412;5.436;2023-04-24T13:07:03;100759.03;;;9.85;68.66
74045;BME280;62389;51.412;5.436;2023-04-24T13:09:30;100769.34;;;9.88;70.31
74045;BME280;62389;51.412;5.436;2023-04-24T13:11:55;100761.97;;;9.77;68.69
74045;BME280;62389;51.412;5.436;2023-04-24T13:14:22;100765.31;;;9.81;71.21